Flight Track Log - Related Links

Times and Time Zones

All times are in EST time to prevent confusion due to time zone crossing. See the EJA831 flight status page for this flight to view local times or setup timezone preferences in your user account.

Time Position Orientation Groundspeed Altitude Reporting Facility
EST Latitude Longitude Course Direction KTS MPH feet Rate Location/Type
Wed 08:12:39 AM 42.3667 -90.6958 123° Southeast 189 217 3,800  Level Chicago Center
Wed 08:13:40 AM 42.3200 -90.6006 123° Southeast 252 290 9,300 4,537 Climbing Chicago Center
Wed 08:14:42 AM 42.2664 -90.5336 137° Southeast 263 303 13,100 3,097 Climbing Chicago Center
Wed 08:15:44 AM 42.2094 -90.4614 137° Southeast 281 323 15,700 2,419 Climbing Chicago Center
Wed 08:16:46 AM 42.1400 -90.3747 137° Southeast 338 389 18,100 2,468 Climbing Chicago Center
Wed 08:17:48 AM 42.0681 -90.2856 137° Southeast 351 404 20,800 2,634 Climbing Chicago Center
Wed 08:18:49 AM 41.9967 -90.1947 137° Southeast 354 407 23,500 2,683 Climbing Chicago Center
Wed 08:19:51 AM 41.9094 -90.0889 138° Southeast 354 407 26,300 2,177 Climbing Chicago Center
Wed 08:20:53 AM 41.8344 -89.9958 137° Southeast 366 421 28,000 1,597 Climbing Chicago Center
Wed 08:21:55 AM 41.7575 -89.9011 137° Southeast 378 435 29,600 1,452 Climbing Chicago Center
Wed 08:22:57 AM 41.6769 -89.8036 138° Southeast 386 444 31,000 677 Climbing Chicago Center
Wed 08:23:59 AM 41.5931 -89.7008 137° Southeast 401 461 31,000  Level Chicago Center
Wed 08:25:00 AM 41.5036 -89.5922 138° Southeast 423 487 31,000  Level Chicago Center
Wed 08:26:02 AM 41.3961 -89.4608 137° Southeast 432 497 31,000  Level Chicago Center
Wed 08:27:04 AM 41.3089 -89.3553 138° Southeast 424 488 31,000  Level Chicago Center
Wed 08:28:06 AM 41.2197 -89.2483 138° Southeast 428 493 31,000  Level Chicago Center
Wed 08:29:08 AM 41.1331 -89.1461 138° Southeast 424 488 31,000  Level Chicago Center
Wed 08:30:10 AM 41.0461 -89.0425 138° Southeast 424 488 31,000  Level Chicago Center
Wed 08:31:12 AM 40.9564 -88.9342 138° Southeast 423 487 31,000  Level Chicago Center
Wed 08:32:14 AM 40.8544 -88.8131 138° Southeast 426 490 31,000  Level Chicago Center
Wed 08:33:15 AM 40.7656 -88.7083 138° Southeast 431 496 31,000  Level Chicago Center
Wed 08:34:17 AM 40.6769 -88.6042 138° Southeast 432 497 31,000  Level Chicago Center
Wed 08:35:19 AM 40.5872 -88.5008 139° Southeast 432 497 31,000  Level Chicago Center
Wed 08:36:21 AM 40.4986 -88.3953 138° Southeast 432 497 31,000  Level Chicago Center
Wed 08:37:23 AM 40.3906 -88.2714 139° Southeast 432 497 31,000  Level Chicago Center
Wed 08:38:25 AM 40.3014 -88.1672 138° Southeast 431 496 31,000 -48 Level Chicago Center
Wed 08:39:27 AM 40.2114 -88.0642 139° Southeast 431 496 30,900 -1,065 Descending Chicago Center
Wed 08:40:29 AM 40.1267 -87.9667 139° Southeast 430 495 28,800 -1,902 Descending Chicago Center
Wed 08:41:30 AM 40.0381 -87.8667 139° Southeast 426 490 27,000 -878 Descending Chicago Center
Wed 08:42:32 AM 39.9519 -87.7672 138° Southeast 420 483 27,000  Level Chicago Center
Wed 08:43:34 AM 39.8458 -87.6475 139° Southeast 423 487 27,000  Level Chicago Center
Wed 08:44:39 AM 39.7550 -87.5469 140° Southeast 426 490 27,000  Level Indianapolis Center
Wed 08:45:40 AM 39.6647 -87.4472 140° Southeast 427 491 27,000 -293 Level Indianapolis Center
Wed 08:46:42 AM 39.5767 -87.3475 139° Southeast 425 489 26,400 -1,220 Descending Indianapolis Center
Wed 08:47:43 AM 39.4703 -87.2431 143° Southeast 409 471 24,500 -1,512 Descending Indianapolis Center
Wed 08:48:45 AM 39.3731 -87.1986 161° South 377 434 23,300 -1,463 Descending Indianapolis Center
Wed 08:49:46 AM 39.2731 -87.1572 162° South 377 434 21,500 -1,610 Descending Indianapolis Center
Wed 08:50:48 AM 39.1736 -87.1136 161° South 380 437 20,000 -1,122 Descending Indianapolis Center
Wed 08:51:49 AM 39.0761 -87.0717 162° South 376 433 19,200 -836 Descending Indianapolis Center
Wed 08:52:50 AM 38.9781 -87.0292 161° South 371 427 18,300 -683 Descending Indianapolis Center
Wed 08:53:52 AM 38.8853 -86.9864 160° South 358 412 17,800 -634 Descending Indianapolis Center
Wed 08:54:53 AM 38.7958 -86.9233 151° Southeast 360 414 17,000 -780 Descending Indianapolis Center
Wed 08:55:55 AM 38.7067 -86.8619 152° Southeast 360 414 16,200 -829 Descending Indianapolis Center
Wed 08:56:56 AM 38.6189 -86.8000 151° Southeast 358 412 15,300 -1,317 Descending Indianapolis Center
Wed 08:57:58 AM 38.5194 -86.7233 149° Southeast 349 402 13,500 -1,805 Descending Indianapolis Center
Wed 08:58:59 AM 38.4753 -86.6156 118° Southeast 341 392 11,600 -1,967 Descending Indianapolis Center
Wed 09:00:00 AM 38.4394 -86.5078 113° Southeast 333 383 9,500 -1,805 Descending Indianapolis Center
Wed 09:01:02 AM 38.4544 -86.4086 79° East 293 337 7,900 -1,220 Descending Indianapolis Center
Wed 09:02:03 AM 38.4672 -86.3072 81° East 288 331 7,000 -439 Descending Indianapolis Center
Wed 09:03:05 AM 38.4772 -86.2233 81° East 251 289 7,000  Level Indianapolis Center
Wed 09:04:06 AM 38.4675 -86.1425 99° East 249 287 7,000 -146 Level Indianapolis Center
Wed 09:05:08 AM 38.4303 -86.0717 124° Southeast 253 291 6,700 -488 Descending Indianapolis Center
Wed 09:06:09 AM 38.3753 -86.0231 145° Southeast 241 277 6,000 -341 Descending Indianapolis Center
Wed 09:07:11 AM 38.3219 -85.9769 146° Southeast 233 268 6,000  Level Indianapolis Center
Wed 09:08:12 AM 38.2664 -85.9319 148° Southeast 233 268 6,000  Level Indianapolis Center
Wed 09:09:14 AM 38.2119 -85.8847 146° Southeast 235 270 6,000 -341 Level Indianapolis Center
Wed 09:10:15 AM 38.1567 -85.8386 147° Southeast 235 270 5,300 -1,279 Descending Indianapolis Center
Wed 09:11:16 AM 38.1047 -85.7953 147° Southeast 228 262 3,400 -1,561 Descending Indianapolis Center
Wed 09:12:18 AM 38.1164 -85.7247 78° East 230 265 2,100 -1,258 Descending Indianapolis Center
Wed 09:14:00 AM 38.1667 -85.7333 302° West  Level FlightAware Approximate

Login

Don't have an account? Register now (free) for customized features, flight alerts, and more!